Logo AVAMET
Benvolgut visitant, si us plau, ingressa Recuperar contrasenya

Elx Velarde

Dades diàries. Acumulats / Últims 30 dies disponibles

Data Temperatura (°C) Humitat rel. (%) Pressió rel. (hPa) Vent (km/h) Precipitació
Mínima Mitjana Màxima Amplitud
tèrmica
Mínima Mitjana Màxima Mínima Mitjana Màxima Predom. Mitjana Ràfega
màxima
Total
(mm)
Índex-n
Mínima Mitjana Màxima Mínima Mitjana Màxima n
0 a 1
P0 max
mm 5'
Dades mensuals acumulades fins l'últim dia disponible
09/2019 16,2 20,7 24,4 23,9 21,1 27,3 31,4 15,2 17 69 96 1.008 1.017 1.025   6,0 62,0 0,0
Dades anuals acumulades fins l'últim dia disponible
2019 3,2 15,7 27,4 20,1 13,1 24,4 38,1 34,9 13 59 99 995 1.017 1.034   6,1 62,0 140,0
Últims 30 dies disponibles
13-09-2019 18,7     20,6     24,7 6,0 77 83 94 1.019 1.021 1.024 ENE 6,0 31,0
12-09-2019 16,2     18,6     21,1 4,9 62 79 96 1.017 1.021 1.025 62,0
11-09-2019 16,3     19,6     22,8 6,5 40 65 89 1.013 1.017 1.021 31,0 0,0
10-09-2019 20,4     24,6     28,9 8,5 17 50 82 1.008 1.011 1.013 42,0 0,0
09-09-2019 19,7     23,9     28,1 8,4 55 69 83 1.013 1.016 1.018 28,0 0,0
08-09-2019 19,9     23,9     27,9 8,0 47 65 83 1.016 1.018 1.019 21,0 0,0
07-09-2019 21,2     24,1     26,9 5,7 58 74 90 1.018 1.019 1.020 26,0 0,0
06-09-2019 22,3     25,1     27,9 5,6 57 73 88 1.017 1.018 1.019 26,0 0,0
05-09-2019 22,8     25,5     28,2 5,4 55 70 84 1.016 1.017 1.018 25,0 0,0
04-09-2019 22,7     25,6     28,6 5,9 54 71 87 1.016 1.019 1.021 24,0 0,0
03-09-2019 21,9     25,8     29,6 7,7 52 68 84 1.019 1.020 1.021 23,0 0,0
02-09-2019 24,4     26,6     28,8 4,4 58 74 89 1.014 1.017 1.020 22,0 0,0
01-09-2019 22,4     26,9     31,4 9,0 43 62 80 1.012 1.014 1.015 23,0 0,0
31-08-2019 22,6     26,6     30,7 8,1 46 60 73 1.014 1.016 1.018 23,0 0,0
30-08-2019 22,1     26,1     30,2 8,1 43 62 81 1.018 1.019 1.020 22,0 0,0
29-08-2019 22,0     25,8     29,5 7,5 58 74 89 1.018 1.019 1.020 21,0 0,0
28-08-2019 20,3     24,8     29,2 8,9 56 70 84 1.016 1.017 1.018 20,0 0,0
27-08-2019 19,7     24,3     28,9 9,2 51 71 90 1.013 1.015 1.017 31,0 0,0
26-08-2019 22,8     25,9     29,1 6,3 61 74 87 1.011 1.014 1.017 28,0 0,0
25-08-2019 21,2     25,5     29,8 8,6 52 68 84 1.016 1.017 1.018 24,0 0,0
24-08-2019 20,8     25,4     30,1 9,3 47 64 81 1.017 1.018 1.019 23,0 0,0
23-08-2019 21,0     25,6     30,1 9,1 34 60 86 1.018 1.020 1.021 25,0 0,0
22-08-2019 21,6     25,6     29,7 8,1 44 63 81 1.019 1.020 1.020 22,0 0,0
21-08-2019 22,6     25,5     28,4 5,8 44 70 96 1.018 1.019 1.020 28,0
20-08-2019 24,6     27,9     31,2 6,6 56 72 88 1.014 1.017 1.019 29,0 0,0
19-08-2019 24,3     28,1     31,9 7,6 48 66 83 1.012 1.014 1.015 25,0 0,0
18-08-2019 23,2     28,4     33,7 10,5 42 65 87 1.011 1.013 1.014 26,0 0,0
17-08-2019 22,6     27,4     32,1 9,5 36 61 85 1.013 1.015 1.017 20,0 0,0
16-08-2019 21,9     27,1     32,2 10,3 44 63 82 1.016 1.018 1.019 23,0 0,0
15-08-2019 22,3     26,9     31,6 9,3 34 60 85 1.017 1.018 1.019 26,0 0,0
Últims 13 mesos disponibles
09/2019 16,2 20,7 24,4 23,9 21,1 27,3 31,4 15,2 50 69 83 1.011 1.017 1.021 ENE 0,5 62,0
08/2019 19,7 23,2 27,4 27,4 28,4 31,6 38,1 18,4 48 64 79 1.011 1.015 1.020 35,0
07/2019 21,4 23,5 25,9 27,9 28,8 32,3 36,1 14,7 37 57 72 1.006 1.014 1.020 40,0 0,0
06/2019 15,3 19,4 24,4 23,9 23,8 28,4 35,7 20,4 36 59 75 1.009 1.015 1.022 SSE 0,2 49,0 0,3
05/2019 12,2 15,9 21,0 20,0 19,3 24,1 30,8 18,6 48 61 77 1.006 1.015 1.025 45,0 1,8
04/2019 8,1 12,6 16,2 16,6 15,1 20,5 28,2 20,1 39 61 85 1.002 1.013 1.025 50,0 121,6
03/2019 7,6 10,8 13,9 15,5 14,2 20,2 28,6 21,0 35 56 83 1.012 1.023 1.030 43,0 14,5
02/2019 5,9 9,1 12,9 13,9 14,7 18,7 25,7 19,8 32 56 73 999 1.025 1.033 54,0 0,3
01/2019 3,2 8,6 13,6 13,0 13,1 17,4 21,9 18,7 35 53 72 1.006 1.019 1.031 51,0 1,5
12/2018 7,3 10,6 14,2 15,1 14,8 19,5 26,6 19,3 45 61 78 1.011 1.025 1.031 53,0 7,6
11/2018 8,5 12,4 15,5 16,0 14,8 19,6 23,7 15,2 41 64 84 1.001 1.015 1.023 51,0 35,1
10/2018 9,7 16,2 20,1 20,2 14,8 24,2 28,3 18,6 37 64 76 1.000 1.014 1.025 50,0 31,8
09/2018 16,7 21,7 23,8 25,5 26,2 29,2 32,1 15,4 56 68 81 1.012 1.018 1.026 80,0 19,6
Tots els anys disponibles
2018 3,8 15,6 27,7 19,8 10,6 23,9 36,6 32,8 35 61 85 994 1.016 1.033 80,0 210,4
Temperatura (°C)
Humitat relativa (%)
Velocitat del vent i ràfega màxima (km/h)
Direcció del vent (°)
Pressió (hPa)
Nota sobre les dades: s'avisa a l'usuari de la provisionalitat i no oficialitat d'aquestes dades
Logo AVAMET blanc
Web allotjada a Sollutia
Llicència de Creative CommonsLa web d'AVAMET i els seus continguts estan subjectes a una llicència de
Reconeixement - No Comercial - Compartir igual
Properes estacions: Altea - Club Nàutic d'Altea (Soci),    - - - - -      Últimes estacions: Castielfabib (Soci), Sant Mateu (Soci), Vallada (Soci), Agullent (Soci), Llíria - Bodegas del Campo (Soci), La Pobla Tornesa (Soci) - - -